Time;durP1;ratioP1;P1;durP2;ratioP2;P2;SDS_P1;SDS_P2;PMS_P1;PMS_P2;Temp;Humidity;BMP_temperature;BMP_pressure;BME280_temperature;BME280_humidity;BME280_pressure;Samples;Min_cycle;Max_cycle;Signal;HPM_P1;HPM_P2
2023/06/13 00:02:00;;;;;;;2.83;1.50;;;22.80;59.70;;;;;;5027793;28;20094;-72
2023/06/13 00:04:30;;;;;;;4.15;1.23;;;22.80;59.80;;;;;;5035966;28;20123;-74
2023/06/13 00:06:57;;;;;;;3.53;1.50;;;22.90;59.60;;;;;;5009390;28;20037;-72
2023/06/13 00:09:24;;;;;;;2.90;1.73;;;22.80;59.60;;;;;;5027877;28;20045;-72
2023/06/13 00:11:50;;;;;;;3.92;1.10;;;22.80;59.70;;;;;;5008337;28;20490;-72
2023/06/13 00:14:21;;;;;;;2.42;1.40;;;22.70;60.50;;;;;;5027546;28;20034;-74
2023/06/13 00:16:48;;;;;;;3.55;1.33;;;22.70;60.00;;;;;;5005566;28;20036;-72
2023/06/13 00:19:14;;;;;;;6.47;1.30;;;22.70;59.90;;;;;;5023381;28;20044;-71
2023/06/13 00:21:41;;;;;;;4.47;1.38;;;22.60;60.20;;;;;;5025729;28;20067;-71
2023/06/13 00:24:07;;;;;;;2.78;1.48;;;22.60;60.00;;;;;;5009831;28;20086;-73
2023/06/13 00:26:33;;;;;;;4.65;1.42;;;22.50;60.30;;;;;;5026772;28;20041;-71
2023/06/13 00:28:58;;;;;;;2.70;1.80;;;22.50;60.40;;;;;;5027302;28;20065;-71
2023/06/13 00:31:28;;;;;;;2.95;1.40;;;22.50;60.30;;;;;;5009803;28;20088;-72
2023/06/13 00:33:58;;;;;;;3.33;1.20;;;22.50;60.40;;;;;;5027174;28;20036;-72
2023/06/13 00:36:25;;;;;;;4.30;1.38;;;22.40;60.70;;;;;;5031691;28;20105;-72
2023/06/13 00:38:51;;;;;;;4.10;2.03;;;22.40;60.60;;;;;;5023747;28;20054;-72
2023/06/13 00:41:17;;;;;;;6.72;1.70;;;22.30;61.00;;;;;;5018068;28;20040;-71
2023/06/13 00:43:43;;;;;;;5.88;1.70;;;22.30;60.90;;;;;;5010378;28;20034;-73
2023/06/13 00:46:08;;;;;;;2.63;1.30;;;22.30;61.10;;;;;;5011888;28;20069;-73
2023/06/13 00:48:36;;;;;;;5.50;1.50;;;22.20;61.30;;;;;;5026818;28;20065;-73
2023/06/13 00:51:02;;;;;;;5.53;1.80;;;22.10;61.30;;;;;;5009560;28;20026;-73
2023/06/13 00:53:31;;;;;;;3.40;1.30;;;22.10;61.50;;;;;;5027249;28;20049;-72
2023/06/13 00:55:58;;;;;;;2.47;1.25;;;22.10;61.60;;;;;;5027380;28;20033;-74
2023/06/13 00:58:24;;;;;;;2.40;1.75;;;22.00;61.80;;;;;;5029357;28;20037;-71
2023/06/13 01:00:52;;;;;;;3.72;1.50;;;22.00;61.80;;;;;;5025802;28;20099;-73
2023/06/13 01:03:19;;;;;;;3.28;1.50;;;22.00;62.00;;;;;;5027189;28;20025;-74
2023/06/13 01:05:48;;;;;;;8.10;1.83;;;21.90;61.90;;;;;;5011629;28;20029;-73
2023/06/13 01:08:21;;;;;;;2.65;1.50;;;21.90;62.10;;;;;;5009087;28;20573;-72
2023/06/13 01:10:59;;;;;;;2.97;1.65;;;21.80;62.40;;;;;;5001005;28;20037;-72
2023/06/13 01:13:34;;;;;;;6.20;1.52;;;21.80;62.50;;;;;;5027080;28;20274;-74
2023/06/13 01:16:12;;;;;;;4.80;1.42;;;21.80;62.60;;;;;;5027742;28;20036;-72
2023/06/13 01:18:43;;;;;;;3.10;1.30;;;21.70;62.80;;;;;;5025756;28;20034;-72
2023/06/13 01:21:10;;;;;;;3.53;1.42;;;21.70;62.80;;;;;;5026818;28;20029;-71
2023/06/13 01:23:43;;;;;;;2.22;1.38;;;21.70;62.90;;;;;;5007255;28;20064;-74
2023/06/13 01:26:36;;;;;;;6.82;1.27;;;21.70;63.10;;;;;;5007512;28;20462;-73
2023/06/13 01:29:04;;;;;;;6.40;1.30;;;21.60;63.20;;;;;;5007173;28;20033;-73
2023/06/13 01:31:32;;;;;;;3.63;2.03;;;21.50;63.40;;;;;;5008010;28;20567;-74
2023/06/13 01:33:59;;;;;;;7.35;1.67;;;21.50;63.50;;;;;;5008815;28;20033;-71
2023/06/13 01:36:25;;;;;;;5.05;1.90;;;21.50;63.60;;;;;;5027303;28;20048;-72
2023/06/13 01:38:52;;;;;;;6.82;1.98;;;21.50;63.50;;;;;;5011265;28;20055;-73
2023/06/13 01:41:18;;;;;;;5.78;1.75;;;21.40;63.60;;;;;;5030697;28;20033;-73
2023/06/13 01:43:44;;;;;;;3.13;1.60;;;21.30;63.70;;;;;;5029311;28;20033;-73
2023/06/13 01:46:18;;;;;;;3.40;1.40;;;21.30;63.80;;;;;;5030111;28;20493;-73
2023/06/13 01:49:05;;;;;;;4.50;1.73;;;21.20;64.20;;;;;;5025244;28;20038;-73
2023/06/13 01:51:58;;;;;;;6.03;2.30;;;21.20;64.30;;;;;;5028759;28;20445;-73
2023/06/13 01:54:26;;;;;;;5.60;1.75;;;21.10;64.70;;;;;;5010119;28;20168;-72
2023/06/13 01:56:56;;;;;;;6.47;1.70;;;21.00;64.90;;;;;;5013904;28;20053;-73
2023/06/13 01:59:27;;;;;;;8.93;2.55;;;21.00;64.80;;;;;;5029458;28;20136;-71
2023/06/13 02:01:53;;;;;;;4.28;1.40;;;21.00;65.00;;;;;;5011542;28;20165;-72
2023/06/13 02:04:19;;;;;;;3.55;1.35;;;20.90;64.90;;;;;;5014707;28;20120;-72
2023/06/13 02:06:45;;;;;;;2.63;1.60;;;20.90;65.00;;;;;;5010985;28;20179;-72
2023/06/13 02:09:11;;;;;;;3.95;1.63;;;20.90;65.10;;;;;;5029292;28;20048;-71
2023/06/13 02:11:36;;;;;;;4.93;1.75;;;20.90;65.10;;;;;;5028308;28;20037;-72
2023/06/13 02:14:02;;;;;;;2.60;1.55;;;20.90;65.00;;;;;;5011865;28;20034;-74
2023/06/13 02:16:29;;;;;;;4.93;1.55;;;20.90;65.20;;;;;;5029744;28;20041;-71
2023/06/13 02:18:55;;;;;;;3.05;1.40;;;20.90;64.90;;;;;;5010289;28;20048;-71
2023/06/13 02:21:22;;;;;;;4.97;1.85;;;20.80;65.30;;;;;;5029290;28;20153;-71
2023/06/13 02:23:47;;;;;;;3.28;1.63;;;20.80;65.30;;;;;;5027920;28;20033;-72
2023/06/13 02:26:14;;;;;;;3.47;1.25;;;20.80;65.70;;;;;;5011929;28;20048;-72
2023/06/13 02:28:40;;;;;;;3.78;1.48;;;20.70;65.70;;;;;;5028487;28;20025;-71
2023/06/13 02:31:05;;;;;;;3.28;1.65;;;20.60;65.80;;;;;;5029182;28;20045;-74
2023/06/13 02:33:31;;;;;;;4.45;1.70;;;20.60;66.40;;;;;;5010468;28;20528;-74
2023/06/13 02:35:57;;;;;;;3.42;1.80;;;20.50;66.40;;;;;;5010932;28;20946;-73
2023/06/13 02:38:22;;;;;;;6.20;1.55;;;20.50;66.80;;;;;;5011536;28;20036;-72
2023/06/13 02:40:48;;;;;;;3.15;1.70;;;20.40;66.90;;;;;;5010208;28;20111;-73
2023/06/13 02:43:13;;;;;;;6.10;1.90;;;20.30;67.50;;;;;;5029204;28;20029;-73
2023/06/13 02:45:39;;;;;;;3.58;1.55;;;20.20;67.80;;;;;;5027893;28;20112;-73
2023/06/13 02:48:04;;;;;;;4.35;1.40;;;20.20;67.70;;;;;;5027857;28;20123;-73
2023/06/13 02:50:30;;;;;;;7.75;1.60;;;20.10;68.30;;;;;;5010540;28;20038;-76
2023/06/13 02:52:56;;;;;;;5.07;1.55;;;20.00;68.50;;;;;;5011056;28;20034;-73
2023/06/13 02:55:22;;;;;;;3.88;1.88;;;20.00;68.30;;;;;;5029039;28;20551;-73
2023/06/13 02:57:48;;;;;;;3.38;1.45;;;19.80;68.30;;;;;;5027939;28;20054;-71
2023/06/13 03:00:17;;;;;;;6.80;2.40;;;19.90;68.70;;;;;;5028370;28;20102;-72
2023/06/13 03:02:45;;;;;;;4.03;1.70;;;19.80;68.90;;;;;;5027806;28;20036;-73
2023/06/13 03:05:15;;;;;;;3.88;1.58;;;19.70;69.10;;;;;;5017448;28;20026;-73
2023/06/13 03:07:46;;;;;;;3.08;1.92;;;19.70;68.90;;;;;;5035412;28;20088;-72
2023/06/13 03:10:12;;;;;;;;;;;19.70;69.30;;;;;;5043579;28;20088;-72
2023/06/13 03:12:39;;;;;;;6.63;1.52;;;19.70;69.00;;;;;;5010725;28;19920;-72
2023/06/13 03:15:05;;;;;;;6.95;1.80;;;19.60;69.30;;;;;;5025004;28;20543;-71
2023/06/13 03:17:30;;;;;;;3.60;1.58;;;19.60;69.40;;;;;;5027513;28;20033;-75
2023/06/13 03:19:56;;;;;;;3.70;1.58;;;19.50;69.60;;;;;;5010263;28;20472;-72
2023/06/13 03:22:21;;;;;;;3.28;1.60;;;19.50;69.50;;;;;;5028741;28;20438;-74
2023/06/13 03:24:48;;;;;;;2.97;1.90;;;19.50;69.30;;;;;;5027747;28;20025;-71
2023/06/13 03:27:13;;;;;;;8.27;2.35;;;19.40;69.50;;;;;;5010701;28;20517;-72
2023/06/13 03:29:40;;;;;;;3.78;1.63;;;19.40;69.70;;;;;;5026795;28;20061;-72
2023/06/13 03:32:07;;;;;;;3.30;1.70;;;19.40;70.10;;;;;;5028107;28;20044;-71
2023/06/13 03:34:38;;;;;;;4.93;1.80;;;19.30;69.90;;;;;;5005985;28;20075;-73
2023/06/13 03:37:08;;;;;;;4.60;2.10;;;19.30;70.40;;;;;;5025567;28;20033;-73
2023/06/13 03:39:34;;;;;;;4.30;2.00;;;19.30;70.30;;;;;;5009612;28;20153;-74
2023/06/13 03:42:01;;;;;;;3.25;1.80;;;19.20;70.40;;;;;;5033359;28;20065;-73
2023/06/13 03:44:27;;;;;;;3.50;1.48;;;19.20;70.40;;;;;;5013907;28;20043;-72
2023/06/13 03:46:55;;;;;;;4.95;2.00;;;19.10;70.30;;;;;;5011626;28;20441;-73
2023/06/13 03:49:21;;;;;;;3.67;1.75;;;19.10;70.70;;;;;;5010318;28;20505;-73
2023/06/13 03:51:47;;;;;;;3.47;1.80;;;19.10;70.80;;;;;;5009173;28;20040;-73
2023/06/13 03:54:12;;;;;;;3.78;1.63;;;19.10;71.20;;;;;;5010337;28;20033;-73
2023/06/13 03:56:38;;;;;;;3.33;1.70;;;19.10;71.00;;;;;;5028888;28;20052;-73
2023/06/13 03:59:03;;;;;;;3.42;1.70;;;19.10;71.00;;;;;;5008803;28;20033;-73
2023/06/13 04:01:29;;;;;;;3.45;1.80;;;19.00;71.30;;;;;;5015027;28;20108;-72
2023/06/13 04:03:55;;;;;;;4.93;2.05;;;19.10;71.80;;;;;;5037394;28;20071;-72
2023/06/13 04:06:21;;;;;;;4.38;1.83;;;19.10;71.30;;;;;;5033848;28;20034;-73
2023/06/13 04:08:46;;;;;;;5.53;2.13;;;19.00;71.30;;;;;;5029025;28;20034;-73
2023/06/13 04:11:12;;;;;;;5.70;1.70;;;19.00;71.40;;;;;;5010922;28;20044;-74
2023/06/13 04:13:38;;;;;;;3.78;1.92;;;18.90;72.00;;;;;;5009085;28;20029;-72
2023/06/13 04:16:04;;;;;;;5.50;2.22;;;18.90;71.70;;;;;;5027890;28;20031;-72
2023/06/13 04:18:29;;;;;;;3.25;1.80;;;18.90;71.80;;;;;;5009828;28;20045;-72
2023/06/13 04:20:57;;;;;;;7.30;2.00;;;18.90;71.90;;;;;;5008535;28;20037;-72
2023/06/13 04:23:25;;;;;;;2.95;1.52;;;18.90;72.10;;;;;;5027637;28;20091;-72
2023/06/13 04:25:51;;;;;;;5.53;2.53;;;18.90;72.00;;;;;;5008955;28;20044;-73
2023/06/13 04:28:17;;;;;;;5.88;2.00;;;18.90;72.20;;;;;;5009595;28;20037;-73
2023/06/13 04:30:46;;;;;;;5.53;2.13;;;18.90;72.30;;;;;;5006892;28;20041;-73
2023/06/13 04:33:16;;;;;;;5.63;2.13;;;18.90;72.20;;;;;;5027464;28;20522;-73
2023/06/13 04:35:44;;;;;;;6.50;2.03;;;18.80;72.30;;;;;;5008826;28;20041;-73
2023/06/13 04:38:14;;;;;;;5.38;1.60;;;18.80;72.60;;;;;;5027286;28;20057;-72
2023/06/13 04:40:40;;;;;;;5.15;2.25;;;18.80;72.30;;;;;;5007644;28;20128;-73
2023/06/13 04:43:05;;;;;;;3.78;1.90;;;18.90;72.50;;;;;;5009710;28;20556;-72
2023/06/13 04:45:32;;;;;;;5.78;1.50;;;18.90;72.40;;;;;;5026458;28;20545;-73
2023/06/13 04:48:01;;;;;;;6.60;1.88;;;18.90;72.30;;;;;;5005580;28;20033;-73
2023/06/13 04:50:27;;;;;;;3.22;1.48;;;18.90;72.30;;;;;;5009333;28;20040;-73
2023/06/13 04:52:53;;;;;;;5.97;1.98;;;18.90;72.20;;;;;;5026532;28;20116;-72
2023/06/13 04:55:22;;;;;;;7.43;2.60;;;19.00;72.30;;;;;;5031654;28;20032;-72
2023/06/13 04:57:48;;;;;;;4.35;1.88;;;19.00;72.30;;;;;;5019634;28;20038;-71
2023/06/13 05:00:15;;;;;;;4.85;2.00;;;18.90;72.50;;;;;;5012101;28;20041;-72
2023/06/13 05:02:41;;;;;;;2.78;1.48;;;19.00;72.40;;;;;;5024733;28;20041;-74
2023/06/13 05:05:07;;;;;;;3.63;1.85;;;18.90;72.90;;;;;;5027688;28;20025;-73
2023/06/13 05:07:34;;;;;;;4.45;2.03;;;19.00;72.50;;;;;;5007126;28;20136;-72
2023/06/13 05:10:03;;;;;;;8.35;2.22;;;19.00;72.40;;;;;;5004935;28;20133;-72
2023/06/13 05:12:29;;;;;;;3.22;1.90;;;19.10;72.40;;;;;;5008339;28;20067;-71
2023/06/13 05:14:54;;;;;;;3.08;1.65;;;19.10;72.60;;;;;;5008224;28;20425;-72
2023/06/13 05:17:21;;;;;;;5.32;2.50;;;19.20;72.50;;;;;;5026331;28;20052;-72
2023/06/13 05:19:47;;;;;;;11.50;2.00;;;19.20;72.40;;;;;;5020566;28;20053;-72
2023/06/13 05:22:12;;;;;;;4.20;1.63;;;19.20;72.80;;;;;;5009618;28;20033;-73
2023/06/13 05:24:38;;;;;;;5.90;1.63;;;19.30;72.40;;;;;;5025404;28;20049;-72
2023/06/13 05:27:04;;;;;;;5.95;2.10;;;19.40;72.30;;;;;;5006280;28;20063;-73
2023/06/13 05:29:30;;;;;;;5.38;1.83;;;19.50;72.00;;;;;;5008585;28;20069;-73
2023/06/13 05:31:57;;;;;;;9.77;2.15;;;19.60;72.10;;;;;;5025311;28;20828;-71
2023/06/13 05:34:23;;;;;;;3.25;1.77;;;19.70;72.10;;;;;;5026758;28;20053;-72
2023/06/13 05:36:49;;;;;;;7.45;2.00;;;19.90;71.70;;;;;;5008674;28;20057;-72
2023/06/13 05:39:15;;;;;;;5.40;1.73;;;19.90;71.40;;;;;;5008622;28;20071;-72
2023/06/13 05:41:40;;;;;;;3.97;2.15;;;20.10;71.30;;;;;;5026203;28;20129;-72
2023/06/13 05:44:06;;;;;;;5.85;1.77;;;20.30;71.00;;;;;;5028489;28;20531;-72
2023/06/13 05:46:32;;;;;;;4.22;2.15;;;20.50;70.50;;;;;;5008746;28;20082;-72
2023/06/13 05:48:58;;;;;;;4.00;2.15;;;20.80;69.60;;;;;;5030734;28;20041;-71
2023/06/13 05:51:24;;;;;;;4.30;1.55;;;21.20;69.70;;;;;;5031402;28;20065;-71
2023/06/13 05:53:50;;;;;;;4.85;1.55;;;21.70;68.20;;;;;;5023548;28;20049;-72
2023/06/13 05:56:16;;;;;;;4.03;1.88;;;22.10;68.20;;;;;;5028862;28;20047;-72
2023/06/13 05:58:42;;;;;;;5.07;2.00;;;22.60;66.80;;;;;;5009226;28;20713;-71
2023/06/13 06:01:10;;;;;;;5.18;2.08;;;23.00;65.70;;;;;;5027295;28;20084;-72
2023/06/13 06:03:38;;;;;;;3.13;1.70;;;23.20;65.10;;;;;;5014622;28;20083;-71
2023/06/13 06:06:04;;;;;;;3.75;1.85;;;23.50;64.10;;;;;;5027361;28;20034;-72
2023/06/13 06:08:30;;;;;;;7.00;2.40;;;23.70;63.50;;;;;;5026813;28;20033;-72
2023/06/13 06:10:56;;;;;;;5.32;1.70;;;23.80;64.10;;;;;;5025372;28;20044;-72
2023/06/13 06:13:22;;;;;;;6.95;2.78;;;23.80;64.20;;;;;;5009357;28;20084;-72
2023/06/13 06:15:47;;;;;;;3.90;1.73;;;24.00;63.90;;;;;;5025913;28;20045;-71
2023/06/13 06:18:13;;;;;;;4.07;1.75;;;23.90;63.90;;;;;;5027210;28;20029;-72
2023/06/13 06:20:38;;;;;;;5.15;1.67;;;24.00;63.90;;;;;;5007486;28;20037;-73
2023/06/13 06:23:04;;;;;;;3.75;1.33;;;24.10;63.60;;;;;;5009049;28;20040;-73
2023/06/13 06:25:30;;;;;;;4.13;1.92;;;24.20;63.60;;;;;;5026818;28;20037;-72
2023/06/13 06:27:56;;;;;;;5.00;1.95;;;24.30;63.40;;;;;;5026194;28;20047;-72
2023/06/13 06:30:21;;;;;;;5.25;2.15;;;24.30;63.70;;;;;;5008628;28;20506;-73
2023/06/13 06:32:47;;;;;;;4.75;1.58;;;24.40;62.70;;;;;;5008263;28;20065;-73
2023/06/13 06:35:16;;;;;;;2.40;1.52;;;24.50;63.50;;;;;;5009890;28;20493;-73
2023/06/13 06:37:45;;;;;;;5.10;1.67;;;24.60;64.50;;;;;;5009385;28;20405;-73
2023/06/13 06:40:11;;;;;;;10.73;1.40;;;24.80;62.90;;;;;;5028773;28;20045;-72
2023/06/13 06:42:37;;;;;;;4.47;2.03;;;24.90;63.10;;;;;;5009476;28;20505;-74
2023/06/13 06:45:02;;;;;;;4.07;1.63;;;25.20;61.50;;;;;;5032490;28;20029;-72
2023/06/13 06:47:28;;;;;;;4.38;1.92;;;25.40;61.80;;;;;;5013773;28;20029;-73
2023/06/13 06:49:54;;;;;;;8.63;1.90;;;25.50;60.60;;;;;;5024816;28;20037;-73
2023/06/13 06:52:19;;;;;;;12.60;2.05;;;25.60;60.60;;;;;;5026095;28;20413;-72
2023/06/13 06:54:45;;;;;;;2.75;1.60;;;25.80;60.50;;;;;;5024966;28;20156;-71
2023/06/13 06:57:12;;;;;;;4.78;1.50;;;26.10;62.30;;;;;;5008936;28;20145;-72
2023/06/13 06:59:37;;;;;;;4.28;1.60;;;26.60;64.00;;;;;;5006673;28;20045;-72
2023/06/13 07:02:03;;;;;;;3.35;1.50;;;27.40;59.60;;;;;;5026491;28;20022;-73
2023/06/13 07:04:29;;;;;;;3.20;2.17;;;28.10;60.70;;;;;;5026193;28;20593;-74
2023/06/13 07:06:55;;;;;;;3.15;2.30;;;29.20;57.90;;;;;;5025021;28;20128;-72
2023/06/13 07:09:20;;;;;;;5.45;2.40;;;30.50;56.80;;;;;;5022375;28;20034;-73
2023/06/13 07:11:46;;;;;;;6.30;2.30;;;31.20;57.00;;;;;;5024776;28;20486;-73
2023/06/13 07:14:12;;;;;;;8.23;2.65;;;32.20;54.40;;;;;;5026120;28;20033;-72
2023/06/13 07:16:37;;;;;;;4.22;2.25;;;32.40;54.30;;;;;;5025138;28;20805;-73
2023/06/13 07:19:03;;;;;;;7.18;2.45;;;32.70;55.50;;;;;;5025756;28;20152;-73
2023/06/13 07:21:29;;;;;;;5.28;2.45;;;33.20;53.70;;;;;;5025501;28;20116;-73
2023/06/13 07:23:54;;;;;;;7.63;2.60;;;33.50;54.30;;;;;;5024770;28;20033;-74
2023/06/13 07:26:21;;;;;;;9.30;2.67;;;34.10;51.00;;;;;;5025701;28;20482;-75
2023/06/13 07:28:47;;;;;;;4.10;2.65;;;34.60;51.00;;;;;;5023405;28;20504;-71
2023/06/13 07:31:12;;;;;;;5.32;2.72;;;34.80;51.40;;;;;;5008403;28;20053;-72
2023/06/13 07:33:38;;;;;;;4.63;2.60;;;35.10;51.30;;;;;;5025180;28;20410;-74
2023/06/13 07:36:04;;;;;;;11.57;3.22;;;34.90;51.30;;;;;;5029246;28;20030;-74
2023/06/13 07:38:30;;;;;;;5.32;2.78;;;35.80;49.90;;;;;;5041225;28;20408;-74
2023/06/13 07:40:55;;;;;;;5.97;2.97;;;35.80;49.60;;;;;;5028450;28;20041;-75
2023/06/13 07:43:21;;;;;;;7.97;2.95;;;35.90;49.00;;;;;;5026125;28;20040;-72
2023/06/13 07:45:46;;;;;;;3.63;2.85;;;35.90;48.60;;;;;;5025307;28;20044;-72
2023/06/13 07:48:12;;;;;;;9.00;3.08;;;36.10;48.90;;;;;;5007478;28;20033;-74
2023/06/13 07:50:39;;;;;;;5.65;2.92;;;36.30;48.70;;;;;;5006459;28;20482;-74
2023/06/13 07:53:04;;;;;;;7.45;3.15;;;36.20;47.90;;;;;;5025571;28;20087;-74
2023/06/13 07:55:30;;;;;;;8.43;3.13;;;36.20;48.10;;;;;;5025031;28;20037;-73
2023/06/13 07:57:56;;;;;;;6.85;2.83;;;35.90;47.40;;;;;;5006731;28;20064;-72
2023/06/13 08:00:21;;;;;;;5.50;2.90;;;35.70;47.90;;;;;;5006678;28;20045;-73
2023/06/13 08:02:47;;;;;;;5.43;2.70;;;35.70;47.20;;;;;;5021111;28;20441;-72
2023/06/13 08:05:14;;;;;;;4.13;2.53;;;35.50;47.90;;;;;;5027835;28;20108;-75
2023/06/13 08:07:40;;;;;;;7.57;2.67;;;35.50;47.70;;;;;;5006507;28;20045;-73
2023/06/13 08:10:06;;;;;;;3.22;2.28;;;35.10;48.30;;;;;;5006935;28;20033;-71
2023/06/13 08:12:32;;;;;;;6.07;3.05;;;34.90;48.10;;;;;;5006141;28;20034;-76
2023/06/13 08:14:57;;;;;;;6.65;2.42;;;34.60;47.30;;;;;;5006773;28;20040;-72
2023/06/13 08:17:24;;;;;;;5.15;2.38;;;34.00;47.70;;;;;;5006749;28;20048;-71
2023/06/13 08:19:50;;;;;;;7.30;2.03;;;33.50;48.00;;;;;;5023701;28;20041;-73
2023/06/13 08:22:17;;;;;;;6.38;2.25;;;33.20;48.30;;;;;;5006894;28;20053;-72
2023/06/13 08:24:43;;;;;;;7.05;1.80;;;32.60;48.90;;;;;;5023619;28;20666;-72
2023/06/13 08:27:10;;;;;;;5.45;1.65;;;31.80;49.10;;;;;;5024762;28;20692;-72
2023/06/13 08:29:35;;;;;;;4.03;1.55;;;30.90;49.60;;;;;;5023662;28;20049;-73
2023/06/13 08:32:03;;;;;;;4.65;1.50;;;30.60;50.60;;;;;;5027148;28;20060;-73
2023/06/13 08:34:30;;;;;;;4.65;1.33;;;29.90;49.90;;;;;;5029210;28;20106;-73
2023/06/13 08:36:56;;;;;;;6.72;1.85;;;29.70;50.60;;;;;;5024047;28;20096;-72
2023/06/13 08:39:21;;;;;;;6.05;1.60;;;29.50;49.60;;;;;;5024769;28;20076;-77
2023/06/13 08:41:49;;;;;;;3.22;1.70;;;29.40;50.10;;;;;;5023095;28;20110;-72
2023/06/13 08:44:15;;;;;;;5.22;1.77;;;29.20;50.50;;;;;;5024843;28;20037;-73
2023/06/13 08:46:40;;;;;;;7.28;2.10;;;29.20;50.50;;;;;;5006951;28;20057;-73
2023/06/13 08:49:06;;;;;;;4.25;1.58;;;29.00;50.80;;;;;;5028639;28;20037;-72
2023/06/13 08:51:32;;;;;;;6.05;2.22;;;29.10;51.00;;;;;;5010768;28;20042;-73
2023/06/13 08:54:03;;;;;;;4.22;1.42;;;29.00;50.80;;;;;;5027633;28;20091;-72
2023/06/13 08:56:33;;;;;;;5.80;1.58;;;28.60;50.50;;;;;;5012960;28;20098;-72
2023/06/13 08:59:10;;;;;;;4.97;1.52;;;28.50;51.40;;;;;;5009722;28;20132;-73
2023/06/13 09:01:39;;;;;;;8.30;1.98;;;28.50;51.60;;;;;;5027344;28;20521;-74
2023/06/13 09:04:08;;;;;;;2.55;1.48;;;28.70;51.10;;;;;;5011807;28;20139;-73
2023/06/13 09:06:37;;;;;;;3.83;2.08;;;28.80;51.10;;;;;;5027222;28;20038;-72
2023/06/13 09:09:06;;;;;;;2.07;1.40;;;28.90;50.90;;;;;;5028028;28;20033;-72
2023/06/13 09:11:33;;;;;;;4.03;2.03;;;28.90;51.00;;;;;;5009877;28;20038;-72
2023/06/13 09:14:00;;;;;;;4.55;1.58;;;29.00;50.40;;;;;;5009847;28;20037;-72
2023/06/13 09:16:27;;;;;;;4.95;1.65;;;29.00;51.10;;;;;;5027817;28;20038;-74
2023/06/13 09:18:53;;;;;;;1.50;1.20;;;28.90;50.50;;;;;;5008376;28;20457;-74
2023/06/13 09:21:20;;;;;;;4.78;2.33;;;28.80;51.00;;;;;;5027919;28;20111;-73
2023/06/13 09:23:47;;;;;;;2.85;1.63;;;28.90;50.00;;;;;;5027177;28;20457;-72
2023/06/13 09:26:14;;;;;;;7.22;1.98;;;29.00;50.00;;;;;;5011334;28;20520;-71
2023/06/13 09:28:40;;;;;;;3.55;1.23;;;28.90;49.20;;;;;;5028830;28;20037;-73
2023/06/13 09:31:07;;;;;;;6.10;1.80;;;28.80;49.40;;;;;;5009019;28;20041;-73
2023/06/13 09:33:34;;;;;;;4.22;1.75;;;28.90;48.80;;;;;;5026818;28;20210;-75
2023/06/13 09:35:59;;;;;;;2.22;1.20;;;28.80;49.40;;;;;;5027961;28;20120;-73
2023/06/13 09:38:25;;;;;;;9.48;1.88;;;28.90;49.60;;;;;;5010674;28;20132;-73
2023/06/13 09:40:55;;;;;;;6.50;1.52;;;28.80;50.40;;;;;;5028712;28;20111;-72
2023/06/13 09:43:22;;;;;;;3.13;1.40;;;28.90;50.80;;;;;;5033040;28;20048;-71
2023/06/13 09:45:49;;;;;;;6.50;1.67;;;29.00;50.40;;;;;;5032306;28;20422;-73
2023/06/13 09:48:15;;;;;;;6.40;2.00;;;29.00;50.00;;;;;;5030985;28;20033;-73
2023/06/13 09:50:42;;;;;;;7.30;2.08;;;29.00;50.20;;;;;;5023502;28;20026;-73
2023/06/13 09:53:08;;;;;;;2.83;1.45;;;29.00;49.70;;;;;;5009014;28;20045;-71
2023/06/13 09:55:35;;;;;;;4.53;1.77;;;29.00;49.60;;;;;;5025776;28;20107;-72
2023/06/13 09:58:01;;;;;;;4.10;1.48;;;28.90;50.20;;;;;;5026296;28;20045;-72
2023/06/13 10:00:27;;;;;;;7.35;2.33;;;29.00;49.70;;;;;;5009158;28;20056;-72
2023/06/13 10:02:53;;;;;;;2.40;1.48;;;29.10;50.20;;;;;;5008636;28;20064;-73
2023/06/13 10:05:18;;;;;;;2.50;1.60;;;29.30;49.40;;;;;;5026971;28;20034;-74
2023/06/13 10:07:44;;;;;;;4.85;1.85;;;29.40;50.00;;;;;;5006661;28;20041;-73
2023/06/13 10:10:10;;;;;;;5.57;1.50;;;29.40;49.30;;;;;;5003783;28;20116;-72
2023/06/13 10:12:45;;;;;;;7.00;2.20;;;29.50;49.60;;;;;;5007160;28;20106;-72
2023/06/13 10:15:14;;;;;;;4.18;1.65;;;29.60;48.70;;;;;;5023299;28;20108;-72
2023/06/13 10:17:42;;;;;;;3.85;1.65;;;29.60;48.80;;;;;;5024764;28;20068;-73
2023/06/13 10:20:11;;;;;;;4.78;1.67;;;29.60;48.70;;;;;;5013128;28;20093;-73
2023/06/13 10:22:39;;;;;;;10.63;2.20;;;29.60;48.50;;;;;;5034282;28;20045;-72
2023/06/13 10:25:07;;;;;;;3.22;1.48;;;29.70;48.50;;;;;;5025868;28;20383;-72
2023/06/13 10:27:36;;;;;;;4.82;1.92;;;29.80;48.10;;;;;;5025037;28;20030;-73
2023/06/13 10:30:17;;;;;;;4.53;1.50;;;29.70;48.10;;;;;;5007818;28;20046;-72
2023/06/13 10:33:11;;;;;;;6.47;1.95;;;29.60;48.40;;;;;;5005864;28;20037;-74
2023/06/13 10:35:50;;;;;;;3.17;1.60;;;29.50;48.30;;;;;;5006789;28;20088;-73
2023/06/13 10:38:58;;;;;;;2.70;1.60;;;29.60;49.30;;;;;;5025877;28;20045;-73
2023/06/13 10:41:35;;;;;;;3.50;1.27;;;29.70;49.80;;;;;;5005065;28;20126;-72
2023/06/13 10:44:09;;;;;;;2.05;1.55;;;29.70;49.30;;;;;;5025230;28;20038;-73
2023/06/13 10:46:35;;;;;;;8.77;1.63;;;29.40;49.60;;;;;;5006212;28;20030;-74
2023/06/13 10:49:01;;;;;;;5.60;1.67;;;29.60;50.50;;;;;;5024889;28;20110;-73
2023/06/13 10:51:30;;;;;;;3.45;1.63;;;29.70;49.60;;;;;;5007850;28;20128;-73
2023/06/13 10:54:11;;;;;;;4.60;1.90;;;29.60;49.10;;;;;;5024055;28;20025;-73
2023/06/13 10:56:39;;;;;;;3.08;1.58;;;29.70;50.10;;;;;;5024448;28;20129;-73
2023/06/13 10:59:06;;;;;;;3.35;1.40;;;29.50;49.60;;;;;;5022079;28;20029;-72
2023/06/13 11:01:34;;;;;;;2.40;1.55;;;29.40;50.10;;;;;;5007052;28;20466;-72
2023/06/13 11:04:19;;;;;;;2.55;1.38;;;29.30;50.40;;;;;;5004446;28;20091;-72
2023/06/13 11:07:06;;;;;;;5.32;1.60;;;29.40;49.90;;;;;;5001825;28;20029;-72
2023/06/13 11:09:32;;;;;;;3.55;1.48;;;29.40;50.30;;;;;;4989155;28;20045;-72
2023/06/13 11:12:00;;;;;;;2.95;1.55;;;29.50;49.80;;;;;;5007889;28;20727;-73
2023/06/13 11:14:36;;;;;;;13.82;1.55;;;29.40;50.80;;;;;;5012153;28;20121;-72
2023/06/13 11:17:02;;;;;;;3.70;1.63;;;29.50;50.40;;;;;;5009719;28;20044;-73
2023/06/13 11:19:28;;;;;;;5.50;1.73;;;29.50;51.10;;;;;;5007033;28;20037;-73
2023/06/13 11:22:00;;;;;;;4.60;1.88;;;29.50;50.30;;;;;;5007439;28;20025;-73
2023/06/13 11:24:34;;;;;;;11.27;1.63;;;29.50;50.40;;;;;;5007947;28;20784;-71
2023/06/13 11:27:01;;;;;;;7.55;1.30;;;29.60;51.50;;;;;;5007524;28;20026;-73
2023/06/13 11:29:28;;;;;;;4.32;1.90;;;29.60;50.00;;;;;;5007637;28;20041;-74
2023/06/13 11:31:54;;;;;;;3.88;1.58;;;29.60;49.50;;;;;;5024078;28;20103;-73
2023/06/13 11:34:31;;;;;;;3.55;1.65;;;29.50;49.80;;;;;;5025090;28;20037;-73
2023/06/13 11:37:03;;;;;;;6.65;1.80;;;29.60;50.60;;;;;;5024368;28;20553;-72
2023/06/13 11:39:41;;;;;;;5.20;1.75;;;29.60;49.30;;;;;;5025229;28;20525;-72
2023/06/13 11:42:08;;;;;;;3.25;1.90;;;29.70;49.50;;;;;;5004931;28;20041;-72
2023/06/13 11:44:37;;;;;;;3.72;1.67;;;29.70;49.50;;;;;;5006534;28;20522;-72
2023/06/13 11:47:03;;;;;;;5.15;1.70;;;29.70;49.90;;;;;;5025186;28;20037;-72
2023/06/13 11:49:28;;;;;;;6.25;1.63;;;29.60;49.20;;;;;;5007174;28;20053;-73
2023/06/13 11:51:54;;;;;;;2.70;1.65;;;29.50;48.50;;;;;;5024109;28;20037;-73
2023/06/13 11:54:29;;;;;;;7.22;2.00;;;29.40;49.40;;;;;;5025387;28;20037;-73
2023/06/13 11:56:54;;;;;;;4.78;1.70;;;29.30;50.10;;;;;;5008162;28;20132;-73
2023/06/13 11:59:22;;;;;;;4.93;1.67;;;29.30;49.30;;;;;;5006448;28;20034;-72
2023/06/13 12:01:54;;;;;;;7.32;1.70;;;29.30;50.70;;;;;;5024073;28;20036;-71
2023/06/13 12:04:25;;;;;;;3.15;1.60;;;29.40;49.70;;;;;;5008758;28;20405;-72
2023/06/13 12:06:52;;;;;;;3.90;1.65;;;29.40;50.00;;;;;;5026450;28;20106;-73
2023/06/13 12:09:18;;;;;;;2.90;1.63;;;29.50;50.20;;;;;;5009603;28;20587;-73
2023/06/13 12:11:45;;;;;;;4.78;1.65;;;29.50;50.30;;;;;;5023992;28;20045;-71
2023/06/13 12:14:11;;;;;;;4.82;2.53;;;29.50;49.30;;;;;;5006750;28;20041;-72
2023/06/13 12:16:38;;;;;;;3.50;1.88;;;29.40;49.80;;;;;;5023889;28;20037;-72
2023/06/13 12:19:06;;;;;;;4.60;1.60;;;29.40;50.00;;;;;;5005674;28;20086;-72
2023/06/13 12:21:33;;;;;;;4.47;1.70;;;29.30;49.40;;;;;;5006069;28;20087;-72
2023/06/13 12:24:05;;;;;;;3.38;1.90;;;29.10;49.70;;;;;;5006292;28;20033;-74
2023/06/13 12:26:33;;;;;;;3.00;1.55;;;29.10;49.80;;;;;;5024564;28;20026;-74
2023/06/13 12:29:01;;;;;;;2.85;1.70;;;29.00;50.10;;;;;;5023226;28;20030;-73
2023/06/13 12:31:29;;;;;;;3.67;1.70;;;28.80;49.80;;;;;;5006726;28;20185;-72
2023/06/13 12:34:06;;;;;;;6.75;1.92;;;28.90;50.40;;;;;;5021407;28;20033;-72
2023/06/13 12:36:41;;;;;;;3.05;1.77;;;29.00;50.80;;;;;;5024751;28;20549;-74
2023/06/13 12:39:09;;;;;;;7.78;2.45;;;29.00;50.20;;;;;;5026973;28;20081;-73
2023/06/13 12:41:35;;;;;;;3.00;1.63;;;29.10;51.80;;;;;;5009795;28;20048;-71
2023/06/13 12:44:01;;;;;;;2.92;1.98;;;29.20;50.40;;;;;;5025821;28;20033;-72
2023/06/13 12:46:27;;;;;;;5.65;2.00;;;29.20;49.60;;;;;;5012232;28;20301;-72
2023/06/13 12:48:54;;;;;;;3.28;1.83;;;29.20;49.80;;;;;;5027980;28;20033;-72
2023/06/13 12:51:28;;;;;;;3.80;1.83;;;29.20;50.40;;;;;;5024929;28;20029;-72